Jack Brusco — WDC3066 — position and weather

sailwx.info

Track history (hours):
 
Tides and Currents Weather Stations Pressure Air Temp Water Temp Dewpoint Dewpoint Depression Visibility Wind Speed Wind Dir Waves Ship Positions

Jack Brusco

Owner: Brusco Tug & Barge, Inc., Longview, WA. More information available from US FCC via Universal Licensing System and Coast Guard Vessel Documentation Center.

Last reported at 2015-May-16 17:34 UTC. Time now 2015-May-23 15:01 UTC.
Position N 46°12' W 123°23'.

Length 36 m; draft 5.2 m.

Type: Tug. MMSI: 3699086.

Date/timePositionNaut miles runAvg speedWind from/ knotsBaromVisibWave heightAir tempDewpointWater temp
2015-May-16 17:34N 46°12' W 123°23'8 8.4
2015-May-16 16:33N 46°15' W 123°35'1111.5
2015-May-16 15:34N 46°12' W 123°50'1110.8
2015-May-16 14:34N 46°15' W 124°05'9 9.1
2015-May-16 13:33N 46°07' W 124°10'9 9.4
2015-May-16 12:33N 45°57' W 124°12'9 9.5
2015-May-16 11:33N 45°48' W 124°13'9 9.0
2015-May-16 10:33N 45°39' W 124°13'9 9.2
2015-May-16 09:33N 45°30' W 124°13'  
Track history (hours):
 
Tides and Currents Weather Stations Pressure Air Temp Water Temp Dewpoint Dewpoint Depression Visibility Wind Speed Wind Dir Waves Ship Positions

Jack Brusco

Owner: Brusco Tug & Barge, Inc., Longview, WA. More information available from US FCC via Universal Licensing System and Coast Guard Vessel Documentation Center.

Last reported at 2015-May-16 17:34 UTC. Time now 2015-May-23 15:01 UTC.
Position N 46°12' W 123°23'.

Length 36 m; draft 5.2 m.

Type: Tug. MMSI: 3699086.

Date/timePositionNaut miles runAvg speedWind from/ knotsBaromVisibWave heightAir tempDewpointWater temp
2015-May-16 17:34N 46°12' W 123°23'8 8.4
2015-May-16 16:33N 46°15' W 123°35'1111.5
2015-May-16 15:34N 46°12' W 123°50'1110.8
2015-May-16 14:34N 46°15' W 124°05'9 9.1
2015-May-16 13:33N 46°07' W 124°10'9 9.4
2015-May-16 12:33N 45°57' W 124°12'9 9.5
2015-May-16 11:33N 45°48' W 124°13'9 9.0
2015-May-16 10:33N 45°39' W 124°13'9 9.2
2015-May-16 09:33N 45°30' W 124°13'  

Dump ship's entire track history